Terminal Aerodrome Forecast
Issued by NWS

Home | Current Version | Previous Version | Text Only | Print | Product List | Glossary On
Versions: 1 2 3 4 5 6 7 8 9 10 11 12 13 14 15 16 17 18 19 20
094
FTUS43 KTOP 121651 AAB
TAFFOE
TAF AMD
KFOE 121651Z 1217/1312 35009KT P6SM BKN021
     FM121800 36014G20KT P6SM SCT022 BKN035
     FM122300 01012KT P6SM SCT100
     FM130300 04007KT P6SM BKN060=

USA.gov is the U.S. government's official web portal to all federal, state and local government web resources and services.